createdAt,value
2018-12-30T00:01:41.391Z,7.60
2018-12-30T00:04:13.531Z,7.60
2018-12-30T00:06:43.196Z,7.60
2018-12-30T00:09:12.879Z,7.60
2018-12-30T00:11:45.099Z,7.60
2018-12-30T00:14:14.785Z,7.60
2018-12-30T00:16:44.474Z,7.60
2018-12-30T00:19:14.198Z,7.60
2018-12-30T00:21:45.114Z,7.60
2018-12-30T00:24:14.785Z,7.60
2018-12-30T00:26:44.442Z,7.60
2018-12-30T00:29:14.220Z,7.60
2018-12-30T00:31:43.863Z,7.60
2018-12-30T00:34:14.801Z,7.60
2018-12-30T00:36:44.458Z,7.60
2018-12-30T00:39:16.625Z,7.60
2018-12-30T00:41:46.329Z,7.60
2018-12-30T00:44:17.382Z,7.50
2018-12-30T00:46:48.287Z,7.50
2018-12-30T00:49:17.989Z,7.50
2018-12-30T00:51:47.667Z,7.40
2018-12-30T00:54:17.349Z,7.40
2018-12-30T00:56:47.142Z,7.40
2018-12-30T00:59:16.790Z,7.40
2018-12-30T01:01:46.465Z,7.40
2018-12-30T01:04:16.268Z,7.40
2018-12-30T01:06:45.999Z,7.40
2018-12-30T01:09:15.738Z,7.40
2018-12-30T01:11:45.485Z,7.40
2018-12-30T01:14:15.198Z,7.30
2018-12-30T01:16:44.910Z,7.30
2018-12-30T01:19:14.693Z,7.40
2018-12-30T01:21:44.342Z,7.30
2018-12-30T01:24:14.112Z,7.30
2018-12-30T01:26:43.775Z,7.30
2018-12-30T01:29:13.482Z,7.30
2018-12-30T01:31:43.194Z,7.40
2018-12-30T01:34:12.858Z,7.30
2018-12-30T01:36:42.507Z,7.30
2018-12-30T01:39:12.220Z,7.30
2018-12-30T01:41:41.963Z,7.30
2018-12-30T01:44:11.614Z,7.30
2018-12-30T01:46:42.564Z,7.30
2018-12-30T01:49:12.221Z,7.30
2018-12-30T01:51:41.950Z,7.30
2018-12-30T01:54:12.912Z,7.30
2018-12-30T01:56:42.567Z,7.30
2018-12-30T01:59:12.239Z,7.20
2018-12-30T02:01:41.911Z,7.20
2018-12-30T02:04:11.613Z,7.20
2018-12-30T02:06:41.343Z,7.20
2018-12-30T02:09:11.051Z,7.10
2018-12-30T02:11:40.710Z,7.10
2018-12-30T02:14:10.581Z,7.10
2018-12-30T02:16:40.405Z,7.10
2018-12-30T02:19:10.089Z,7.10
2018-12-30T02:21:41.243Z,7.10
2018-12-30T02:24:09.519Z,7.00
2018-12-30T02:26:39.297Z,7.00
2018-12-30T02:29:09.027Z,6.90
2018-12-30T02:31:38.714Z,6.90
2018-12-30T02:34:08.439Z,6.80
2018-12-30T02:36:38.191Z,6.80
2018-12-30T02:39:07.859Z,6.70
2018-12-30T02:41:37.566Z,6.70
2018-12-30T02:44:07.223Z,6.60
2018-12-30T02:46:38.180Z,6.60
2018-12-30T02:49:07.892Z,6.60
2018-12-30T02:51:37.677Z,6.50
2018-12-30T02:54:07.366Z,6.50
2018-12-30T02:56:37.147Z,6.50
2018-12-30T02:59:06.847Z,6.50
2018-12-30T03:01:36.572Z,6.50
2018-12-30T03:04:06.287Z,6.50
2018-12-30T03:06:35.971Z,6.50
2018-12-30T03:09:06.813Z,6.50
2018-12-30T03:11:36.521Z,6.50
2018-12-30T03:14:06.190Z,6.60
2018-12-30T03:16:35.918Z,6.60
2018-12-30T03:19:05.609Z,6.60
2018-12-30T03:21:35.425Z,6.60
2018-12-30T03:24:05.143Z,6.60
2018-12-30T03:26:34.841Z,6.70
2018-12-30T03:29:04.554Z,6.70
2018-12-30T03:31:34.255Z,6.70
2018-12-30T03:34:03.910Z,6.70
2018-12-30T03:36:33.690Z,6.70
2018-12-30T03:39:03.429Z,6.80
2018-12-30T03:41:33.126Z,6.80
2018-12-30T03:44:02.806Z,6.80
2018-12-30T03:46:32.540Z,6.80
2018-12-30T03:49:02.276Z,6.80
2018-12-30T03:51:31.975Z,6.80
2018-12-30T03:54:01.638Z,6.90
2018-12-30T03:56:31.387Z,6.80
2018-12-30T03:59:01.086Z,6.90
2018-12-30T04:01:30.819Z,6.80
2018-12-30T04:04:00.530Z,6.80
2018-12-30T04:06:30.177Z,6.80
2018-12-30T04:08:59.825Z,6.70
2018-12-30T04:11:29.526Z,6.70
2018-12-30T04:13:59.189Z,6.70
2018-12-30T04:16:28.944Z,6.70
2018-12-30T04:18:58.615Z,6.70
2018-12-30T04:21:28.349Z,6.70
2018-12-30T04:23:58.052Z,6.70
2018-12-30T04:26:27.695Z,6.70
2018-12-30T04:28:57.405Z,6.70
2018-12-30T04:31:27.086Z,6.80
2018-12-30T04:33:56.766Z,6.80
2018-12-30T04:36:26.479Z,6.80
2018-12-30T04:38:57.419Z,6.80
2018-12-30T04:41:27.227Z,6.80
2018-12-30T04:43:56.960Z,6.80
2018-12-30T04:46:26.722Z,6.80
2018-12-30T04:48:56.372Z,6.80
2018-12-30T04:51:26.630Z,6.80
2018-12-30T04:53:56.316Z,6.90
2018-12-30T04:56:25.975Z,6.90
2018-12-30T04:58:55.669Z,6.90
2018-12-30T05:01:25.625Z,6.90
2018-12-30T05:03:55.592Z,6.90
2018-12-30T05:06:25.374Z,6.90
2018-12-30T05:08:55.035Z,6.90
2018-12-30T05:11:24.807Z,6.90
2018-12-30T05:13:54.590Z,6.90
2018-12-30T05:16:24.297Z,7.00
2018-12-30T05:18:54.015Z,6.90
2018-12-30T05:21:23.796Z,7.00
2018-12-30T05:23:53.506Z,7.00
2018-12-30T05:26:23.280Z,7.00
2018-12-30T05:28:52.936Z,7.00
2018-12-30T05:31:22.654Z,7.00
2018-12-30T05:33:52.402Z,7.00
2018-12-30T05:36:22.187Z,7.00
2018-12-30T05:38:51.892Z,7.00
2018-12-30T05:41:21.610Z,7.00
2018-12-30T05:43:51.312Z,7.00
2018-12-30T05:46:21.047Z,7.10
2018-12-30T05:48:50.717Z,7.10
2018-12-30T05:51:20.468Z,7.10
2018-12-30T05:53:51.258Z,7.10
2018-12-30T05:56:20.972Z,7.10
2018-12-30T05:58:50.758Z,7.10
2018-12-30T06:01:20.517Z,7.10
2018-12-30T06:03:50.175Z,7.10
2018-12-30T06:06:19.843Z,7.10
2018-12-30T06:08:49.550Z,7.10
2018-12-30T06:11:19.285Z,7.10
2018-12-30T06:13:48.999Z,7.10
2018-12-30T06:16:18.708Z,7.10
2018-12-30T06:18:48.411Z,7.10
2018-12-30T06:21:18.093Z,7.10
2018-12-30T06:23:47.926Z,7.10
2018-12-30T06:26:17.596Z,7.10
2018-12-30T06:28:47.307Z,7.10
2018-12-30T06:31:16.969Z,7.00
2018-12-30T06:33:46.751Z,7.00
2018-12-30T06:36:16.400Z,7.00
2018-12-30T06:38:47.441Z,7.00
2018-12-30T06:41:17.272Z,7.00
2018-12-30T06:43:46.939Z,7.00
2018-12-30T06:46:16.576Z,7.00
2018-12-30T06:48:46.345Z,7.00
2018-12-30T06:51:15.998Z,7.00
2018-12-30T06:53:45.738Z,7.00
2018-12-30T06:56:16.698Z,6.90
2018-12-30T06:58:46.327Z,6.90
2018-12-30T07:01:15.967Z,6.90
2018-12-30T07:03:45.698Z,6.90
2018-12-30T07:06:15.418Z,6.80
2018-12-30T07:08:45.156Z,6.80
2018-12-30T07:11:14.826Z,6.80
2018-12-30T07:13:44.527Z,6.70
2018-12-30T07:16:14.175Z,6.70
2018-12-30T07:18:43.860Z,6.70
2018-12-30T07:21:13.503Z,6.60
2018-12-30T07:23:43.214Z,6.60
2018-12-30T07:26:12.910Z,6.60
2018-12-30T07:28:42.700Z,6.60
2018-12-30T07:31:12.414Z,6.60
2018-12-30T07:33:42.048Z,6.60
2018-12-30T07:36:11.781Z,6.60
2018-12-30T07:38:41.419Z,6.60
2018-12-30T07:41:11.068Z,6.60
2018-12-30T07:43:42.142Z,6.60
2018-12-30T07:46:11.779Z,6.50
2018-12-30T07:48:41.437Z,6.50
2018-12-30T07:51:11.169Z,6.50
2018-12-30T07:56:16.963Z,6.50
2018-12-30T07:58:46.757Z,6.50
2018-12-30T08:01:17.680Z,6.50
2018-12-30T08:03:47.314Z,6.50
2018-12-30T08:06:16.995Z,6.50
2018-12-30T08:08:47.407Z,6.50
2018-12-30T08:11:17.102Z,6.50
2018-12-30T08:13:51.039Z,6.50
2018-12-30T08:16:20.839Z,6.50
2018-12-30T08:18:51.064Z,6.50
2018-12-30T08:21:23.319Z,6.50
2018-12-30T08:23:54.398Z,6.50
2018-12-30T08:26:27.441Z,6.50
2018-12-30T08:30:27.985Z,6.50
2018-12-30T08:32:57.691Z,6.40
2018-12-30T08:35:27.403Z,6.40
2018-12-30T08:37:58.339Z,6.40
2018-12-30T08:40:28.030Z,6.40
2018-12-30T08:42:57.796Z,6.40
2018-12-30T08:45:27.536Z,6.40
2018-12-30T08:47:57.390Z,6.40
2018-12-30T08:50:27.132Z,6.40
2018-12-30T08:52:56.791Z,6.40
2018-12-30T08:56:30.850Z,6.40
2018-12-30T08:59:00.498Z,6.40
2018-12-30T09:01:30.215Z,6.30
2018-12-30T09:04:00.257Z,6.30
2018-12-30T09:06:29.957Z,6.40
2018-12-30T09:08:59.674Z,6.30
2018-12-30T09:11:29.448Z,6.30
2018-12-30T09:14:00.422Z,6.30
2018-12-30T09:16:30.088Z,6.30
2018-12-30T09:18:59.756Z,6.30
2018-12-30T09:21:31.906Z,6.40
2018-12-30T09:24:01.610Z,6.40
2018-12-30T09:26:31.249Z,6.40
2018-12-30T09:29:02.249Z,6.40
2018-12-30T09:31:31.921Z,6.50
2018-12-30T09:34:01.574Z,6.50
2018-12-30T09:36:31.281Z,6.60
2018-12-30T09:39:00.937Z,6.60
2018-12-30T09:41:30.762Z,6.60
2018-12-30T09:44:01.721Z,6.70
2018-12-30T09:46:31.401Z,6.70
2018-12-30T09:49:03.546Z,6.70
2018-12-30T09:51:33.182Z,6.70
2018-12-30T09:54:02.835Z,6.80
2018-12-30T09:56:32.537Z,6.80
2018-12-30T09:59:02.264Z,6.80
2018-12-30T10:01:31.914Z,6.70
2018-12-30T10:04:01.629Z,6.70
2018-12-30T10:06:31.275Z,6.70
2018-12-30T10:09:00.934Z,6.70
2018-12-30T10:11:30.616Z,6.60
2018-12-30T10:14:00.710Z,6.60
2018-12-30T10:16:30.423Z,6.60
2018-12-30T10:19:00.049Z,6.70
2018-12-30T10:21:31.121Z,6.60
2018-12-30T10:24:00.860Z,6.60
2018-12-30T10:26:30.578Z,6.60
2018-12-30T10:29:00.328Z,6.60
2018-12-30T10:31:29.977Z,6.60
2018-12-30T10:34:01.058Z,6.60
2018-12-30T10:36:30.705Z,6.70
2018-12-30T10:39:00.358Z,6.70
2018-12-30T10:41:30.094Z,6.70
2018-12-30T10:43:59.755Z,6.70
2018-12-30T10:46:30.832Z,6.70
2018-12-30T10:49:00.465Z,6.80
2018-12-30T10:51:30.134Z,6.80
2018-12-30T10:54:01.095Z,6.80
2018-12-30T10:56:30.770Z,6.80
2018-12-30T10:59:00.449Z,6.90
2018-12-30T11:01:32.634Z,6.90
2018-12-30T11:04:02.284Z,7.00
2018-12-30T11:06:32.014Z,7.00
2018-12-30T11:09:01.645Z,7.10
2018-12-30T11:11:32.642Z,7.20
2018-12-30T11:14:02.341Z,7.20
2018-12-30T11:16:31.987Z,7.20
2018-12-30T11:19:01.707Z,7.30
2018-12-30T11:21:31.385Z,7.40
2018-12-30T11:24:08.550Z,7.40
2018-12-30T11:26:33.361Z,7.50
2018-12-30T11:29:04.299Z,7.60
2018-12-30T11:31:33.951Z,7.60
2018-12-30T11:34:04.865Z,7.60
2018-12-30T11:36:34.558Z,7.60
2018-12-30T11:39:05.846Z,7.60
2018-12-30T11:41:35.487Z,7.60
2018-12-30T11:44:05.194Z,7.70
2018-12-30T11:46:34.885Z,7.70
2018-12-30T11:49:04.680Z,7.70
2018-12-30T11:51:34.529Z,7.70
2018-12-30T11:54:04.194Z,7.70
2018-12-30T11:56:33.892Z,7.70
2018-12-30T11:59:03.640Z,7.70
2018-12-30T12:01:35.883Z,7.70
2018-12-30T12:04:07.018Z,7.70
2018-12-30T12:06:36.646Z,7.70
2018-12-30T12:09:08.839Z,7.70
2018-12-30T12:11:38.481Z,7.70
2018-12-30T12:14:08.270Z,7.80
2018-12-30T12:16:38.111Z,7.80
2018-12-30T12:19:07.820Z,7.80
2018-12-30T12:21:37.479Z,7.80
2018-12-30T12:24:07.184Z,7.80
2018-12-30T12:26:36.997Z,7.80
2018-12-30T12:29:06.765Z,7.80
2018-12-30T12:31:36.426Z,7.80
2018-12-30T12:34:06.388Z,7.80
2018-12-30T12:36:36.085Z,7.80
2018-12-30T12:39:06.828Z,7.80
2018-12-30T12:41:36.497Z,7.90
2018-12-30T12:44:06.187Z,7.90
2018-12-30T12:46:35.884Z,7.90
2018-12-30T12:49:05.515Z,7.90
2018-12-30T12:51:35.303Z,7.90
2018-12-30T12:54:05.107Z,7.90
2018-12-30T12:56:34.761Z,7.90
2018-12-30T12:59:04.483Z,7.80
2018-12-30T13:01:34.151Z,7.80
2018-12-30T13:04:03.810Z,7.70
2018-12-30T13:06:33.930Z,7.60
2018-12-30T13:09:04.404Z,7.60
2018-12-30T13:11:34.068Z,7.50
2018-12-30T13:14:04.976Z,7.40
2018-12-30T13:16:34.655Z,7.40
2018-12-30T13:19:04.522Z,7.30
2018-12-30T13:21:34.242Z,7.30
2018-12-30T13:24:05.376Z,7.20
2018-12-30T13:26:35.091Z,7.20
2018-12-30T13:29:04.784Z,7.20
2018-12-30T13:31:34.499Z,7.20
2018-12-30T13:34:04.300Z,7.20
2018-12-30T13:36:34.107Z,7.20
2018-12-30T13:39:04.030Z,7.10
2018-12-30T13:41:33.814Z,7.10
2018-12-30T13:44:03.579Z,7.10
2018-12-30T13:46:35.839Z,7.00
2018-12-30T13:49:05.591Z,6.90
2018-12-30T13:51:35.416Z,6.90
2018-12-30T13:54:05.081Z,6.90
2018-12-30T13:56:34.918Z,6.80
2018-12-30T13:59:04.591Z,6.80
2018-12-30T14:01:34.441Z,6.80
2018-12-30T14:04:04.785Z,6.70
2018-12-30T14:06:34.525Z,6.70
2018-12-30T14:09:08.490Z,6.70
2018-12-30T14:11:38.554Z,6.60
2018-12-30T14:14:08.256Z,6.60
2018-12-30T14:16:39.167Z,6.50
2018-12-30T14:19:08.809Z,6.50
2018-12-30T14:21:39.608Z,6.50
2018-12-30T14:24:09.995Z,6.40
2018-12-30T14:26:41.138Z,6.40
2018-12-30T14:29:10.873Z,6.40
2018-12-30T14:31:41.907Z,6.40
2018-12-30T14:34:11.667Z,6.40
2018-12-30T14:36:41.347Z,6.40
2018-12-30T14:39:11.418Z,6.30
2018-12-30T14:41:41.043Z,6.30
2018-12-30T14:44:10.772Z,6.30
2018-12-30T14:46:41.982Z,6.20
2018-12-30T14:49:11.836Z,6.20
2018-12-30T14:51:41.601Z,6.10
2018-12-30T14:54:11.262Z,6.10
2018-12-30T14:56:40.962Z,6.10
2018-12-30T14:59:10.876Z,6.00
2018-12-30T15:01:40.543Z,6.00
2018-12-30T15:04:10.256Z,6.00
2018-12-30T15:06:41.275Z,6.00
2018-12-30T15:09:12.242Z,5.90
2018-12-30T15:11:42.750Z,5.90
2018-12-30T15:14:12.452Z,5.90
2018-12-30T15:16:43.712Z,5.90
2018-12-30T15:19:14.342Z,5.90
2018-12-30T15:21:44.099Z,5.90
2018-12-30T15:24:13.797Z,5.80
2018-12-30T15:26:43.627Z,5.80
2018-12-30T15:29:14.740Z,5.80
2018-12-30T15:31:44.888Z,5.80
2018-12-30T15:34:15.905Z,5.70
2018-12-30T15:36:45.614Z,5.70
2018-12-30T15:39:16.638Z,5.60
2018-12-30T15:41:46.386Z,5.60
2018-12-30T15:44:16.006Z,5.50
2018-12-30T15:46:46.317Z,5.50
2018-12-30T15:49:17.171Z,5.50
2018-12-30T15:51:46.954Z,5.40
2018-12-30T15:54:16.759Z,5.40
2018-12-30T15:56:46.725Z,5.40
2018-12-30T15:59:16.480Z,5.40
2018-12-30T16:01:46.339Z,5.40
2018-12-30T16:04:16.050Z,5.30
2018-12-30T16:06:45.788Z,5.30
2018-12-30T16:09:15.794Z,5.30
2018-12-30T16:11:47.168Z,5.30
2018-12-30T16:14:16.805Z,5.30
2018-12-30T16:16:46.558Z,5.30
2018-12-30T16:19:16.280Z,5.30
2018-12-30T16:21:47.212Z,5.30
2018-12-30T16:24:18.189Z,5.30
2018-12-30T16:26:47.895Z,5.30
2018-12-30T16:29:17.760Z,5.20
2018-12-30T16:31:47.538Z,5.20
2018-12-30T16:34:17.210Z,5.20
2018-12-30T16:36:46.905Z,5.20
2018-12-30T16:39:17.929Z,5.20
2018-12-30T16:41:47.918Z,5.20
2018-12-30T16:44:17.689Z,5.20
2018-12-30T16:46:47.385Z,5.20
2018-12-30T16:49:18.530Z,5.10
2018-12-30T16:51:48.180Z,5.10
2018-12-30T16:54:17.943Z,5.20
2018-12-30T16:56:48.936Z,5.10
2018-12-30T16:59:18.583Z,5.10
2018-12-30T17:01:48.332Z,5.10
2018-12-30T17:04:19.201Z,5.10
2018-12-30T17:06:48.866Z,5.10
2018-12-30T17:09:18.630Z,5.10
2018-12-30T17:11:48.355Z,5.10
2018-12-30T17:14:18.037Z,5.10
2018-12-30T17:16:47.713Z,5.10
2018-12-30T17:19:17.358Z,5.10
2018-12-30T17:21:49.574Z,5.10
2018-12-30T17:24:19.229Z,5.10
2018-12-30T17:26:48.886Z,5.10
2018-12-30T17:29:18.631Z,5.10
2018-12-30T17:31:48.334Z,5.10
2018-12-30T17:34:18.039Z,5.00
2018-12-30T17:36:47.775Z,5.10
2018-12-30T17:39:18.698Z,5.10
2018-12-30T17:41:49.552Z,5.30
2018-12-30T17:44:19.251Z,5.50
2018-12-30T17:46:48.906Z,5.60
2018-12-30T17:49:19.039Z,5.60
2018-12-30T17:51:50.200Z,5.50
2018-12-30T17:54:19.906Z,5.50
2018-12-30T17:56:49.550Z,5.50
2018-12-30T17:59:20.442Z,5.40
2018-12-30T18:01:50.106Z,5.40
2018-12-30T18:04:19.718Z,5.40
2018-12-30T18:06:50.690Z,5.40
2018-12-30T18:09:20.314Z,5.50
2018-12-30T18:11:50.832Z,5.40
2018-12-30T18:14:21.145Z,5.40
2018-12-30T18:16:53.323Z,5.40
2018-12-30T18:19:22.931Z,5.40
2018-12-30T18:21:52.567Z,5.40
2018-12-30T18:24:22.274Z,5.40
2018-12-30T18:26:53.188Z,5.40
2018-12-30T18:29:22.842Z,5.40
2018-12-30T18:31:52.576Z,5.40
2018-12-30T18:34:22.195Z,5.40
2018-12-30T18:36:52.135Z,5.40
2018-12-30T18:39:21.802Z,5.40
2018-12-30T18:41:51.825Z,5.40
2018-12-30T18:44:21.524Z,5.40
2018-12-30T18:46:51.158Z,5.40
2018-12-30T18:49:20.840Z,5.40
2018-12-30T18:51:50.561Z,5.40
2018-12-30T18:54:20.191Z,5.40
2018-12-30T18:56:50.031Z,5.40
2018-12-30T18:59:22.190Z,5.40
2018-12-30T19:01:51.858Z,5.30
2018-12-30T19:04:21.508Z,5.30
2018-12-30T19:06:51.293Z,5.20
2018-12-30T19:09:20.985Z,5.20
2018-12-30T19:11:50.847Z,5.10
2018-12-30T19:14:21.857Z,5.10
2018-12-30T19:16:51.582Z,5.10
2018-12-30T19:19:21.486Z,5.10
2018-12-30T19:21:51.232Z,5.00
2018-12-30T19:24:22.283Z,5.00
2018-12-30T19:26:52.023Z,5.00
2018-12-30T19:29:21.666Z,5.00
2018-12-30T19:31:52.587Z,5.00
2018-12-30T19:34:22.250Z,5.00
2018-12-30T19:36:53.462Z,5.00
2018-12-30T19:39:23.334Z,5.00
2018-12-30T19:41:53.221Z,5.00
2018-12-30T19:44:23.637Z,5.00
2018-12-30T19:46:54.113Z,5.00
2018-12-30T19:49:24.786Z,5.00
2018-12-30T19:51:55.179Z,4.90
2018-12-30T19:54:27.005Z,4.90
2018-12-30T19:56:57.455Z,4.90
2018-12-30T19:59:27.371Z,4.90
2018-12-30T20:01:57.901Z,4.90
2018-12-30T20:04:27.638Z,4.90
2018-12-30T20:06:57.414Z,4.90
2018-12-30T20:09:29.099Z,4.90
2018-12-30T20:11:58.795Z,4.90
2018-12-30T20:14:31.014Z,4.90
2018-12-30T20:17:00.742Z,4.90
2018-12-30T20:19:30.449Z,4.90
2018-12-30T20:22:00.108Z,4.90
2018-12-30T20:24:29.761Z,4.90
2018-12-30T20:26:59.541Z,4.90
2018-12-30T20:29:29.258Z,4.90
2018-12-30T20:31:59.147Z,5.00
2018-12-30T20:34:28.842Z,5.00
2018-12-30T20:36:58.511Z,4.90
2018-12-30T20:39:28.211Z,4.90
2018-12-30T20:41:58.501Z,4.90
2018-12-30T20:44:30.395Z,4.90
2018-12-30T20:47:00.946Z,4.90
2018-12-30T20:49:31.106Z,4.90
2018-12-30T20:52:03.307Z,5.00
2018-12-30T20:54:33.283Z,5.00
2018-12-30T20:57:02.987Z,5.00
2018-12-30T20:59:32.705Z,5.00
2018-12-30T21:02:02.343Z,5.00
2018-12-30T21:04:32.117Z,5.00
2018-12-30T21:07:02.164Z,5.10
2018-12-30T21:09:33.069Z,5.10
2018-12-30T21:12:04.300Z,5.10
2018-12-30T21:14:34.104Z,5.10
2018-12-30T21:17:04.477Z,5.10
2018-12-30T21:19:34.251Z,5.10
2018-12-30T21:22:03.922Z,5.10
2018-12-30T21:24:33.637Z,5.10
2018-12-30T21:27:04.642Z,5.10
2018-12-30T21:29:34.335Z,5.10
2018-12-30T21:32:05.209Z,5.00
2018-12-30T21:34:34.922Z,5.00
2018-12-30T21:37:04.901Z,5.00
2018-12-30T21:39:34.553Z,5.00
2018-12-30T21:42:04.226Z,5.10
2018-12-30T21:44:34.651Z,5.10
2018-12-30T21:47:04.563Z,5.10
2018-12-30T21:49:34.218Z,5.00
2018-12-30T21:52:03.928Z,5.00
2018-12-30T21:54:33.849Z,4.90
2018-12-30T21:57:03.550Z,4.80
2018-12-30T21:59:34.357Z,4.80
2018-12-30T22:02:04.055Z,4.70
2018-12-30T22:04:33.941Z,4.60
2018-12-30T22:07:03.753Z,4.50
2018-12-30T22:09:35.958Z,4.40
2018-12-30T22:12:07.301Z,4.30
2018-12-30T22:14:37.043Z,4.30
2018-12-30T22:17:06.726Z,4.20
2018-12-30T22:19:37.666Z,4.10
2018-12-30T22:22:08.580Z,4.00
2018-12-30T22:24:38.224Z,3.90
2018-12-30T22:27:09.130Z,3.80
2018-12-30T22:29:40.059Z,3.80
2018-12-30T22:32:10.360Z,3.80
2018-12-30T22:34:40.125Z,3.70
2018-12-30T22:37:10.321Z,3.70
2018-12-30T22:39:40.143Z,3.70
2018-12-30T22:42:09.786Z,3.60
2018-12-30T22:44:39.624Z,3.60
2018-12-30T22:47:09.835Z,3.50
2018-12-30T22:49:41.070Z,3.50
2018-12-30T22:52:11.039Z,3.40
2018-12-30T22:54:40.738Z,3.40
2018-12-30T22:57:10.520Z,3.40
2018-12-30T22:59:40.988Z,3.30
2018-12-30T23:02:12.010Z,3.30
2018-12-30T23:04:42.071Z,3.30
2018-12-30T23:07:13.258Z,3.20
2018-12-30T23:09:43.407Z,3.20
2018-12-30T23:12:13.108Z,3.20
2018-12-30T23:14:42.989Z,3.20
2018-12-30T23:17:14.723Z,3.30
2018-12-30T23:19:44.397Z,3.40
2018-12-30T23:22:14.742Z,3.40
2018-12-30T23:24:44.421Z,3.40
2018-12-30T23:27:15.420Z,3.50
2018-12-30T23:29:45.273Z,3.50
2018-12-30T23:32:17.418Z,3.50
2018-12-30T23:34:47.514Z,3.60
2018-12-30T23:37:17.595Z,3.60
2018-12-30T23:39:47.279Z,3.60
2018-12-30T23:42:16.985Z,3.60
2018-12-30T23:44:46.639Z,3.60
2018-12-30T23:47:16.392Z,3.70
2018-12-30T23:49:46.074Z,3.70
2018-12-30T23:52:15.705Z,3.80
2018-12-30T23:54:45.398Z,3.80
2018-12-30T23:57:15.049Z,3.80
2018-12-30T23:59:44.681Z,3.80
